sensor_id;sensor_type;location;lat;lon;timestamp;temperature;humidity
14049;DHT22;7099;53.922;10.728;2023-02-27T00:03:53;-1.90;66.70
14049;DHT22;7099;53.922;10.728;2023-02-27T00:07:59;-1.80;66.30
14049;DHT22;7099;53.922;10.728;2023-02-27T00:12:05;-1.90;65.60
14049;DHT22;7099;53.922;10.728;2023-02-27T00:16:12;-1.90;65.60
14049;DHT22;7099;53.922;10.728;2023-02-27T00:20:18;-1.90;66.20
14049;DHT22;7099;53.922;10.728;2023-02-27T00:24:24;-1.90;67.00
14049;DHT22;7099;53.922;10.728;2023-02-27T00:28:30;-1.90;67.20
14049;DHT22;7099;53.922;10.728;2023-02-27T00:32:35;-1.80;67.10
14049;DHT22;7099;53.922;10.728;2023-02-27T00:36:41;-1.90;67.30
14049;DHT22;7099;53.922;10.728;2023-02-27T00:40:46;-1.90;67.30
14049;DHT22;7099;53.922;10.728;2023-02-27T00:44:52;-1.90;68.00
14049;DHT22;7099;53.922;10.728;2023-02-27T00:48:58;-2.00;68.60
14049;DHT22;7099;53.922;10.728;2023-02-27T00:53:04;-1.90;69.00
14049;DHT22;7099;53.922;10.728;2023-02-27T00:57:09;-1.90;68.70
14049;DHT22;7099;53.922;10.728;2023-02-27T01:01:15;-1.80;67.90
14049;DHT22;7099;53.922;10.728;2023-02-27T01:05:20;-1.90;68.00
14049;DHT22;7099;53.922;10.728;2023-02-27T01:09:27;-1.90;66.70
14049;DHT22;7099;53.922;10.728;2023-02-27T01:13:32;-1.90;66.30
14049;DHT22;7099;53.922;10.728;2023-02-27T01:17:38;-2.00;66.20
14049;DHT22;7099;53.922;10.728;2023-02-27T01:21:44;-2.00;66.40
14049;DHT22;7099;53.922;10.728;2023-02-27T01:25:49;-2.00;66.80
14049;DHT22;7099;53.922;10.728;2023-02-27T01:29:55;-2.10;66.60
14049;DHT22;7099;53.922;10.728;2023-02-27T01:34:00;-2.10;66.50
14049;DHT22;7099;53.922;10.728;2023-02-27T01:38:06;-2.10;67.30
14049;DHT22;7099;53.922;10.728;2023-02-27T01:42:23;-2.10;67.20
14049;DHT22;7099;53.922;10.728;2023-02-27T01:46:31;-2.10;67.20
14049;DHT22;7099;53.922;10.728;2023-02-27T01:50:57;-2.10;67.30
14049;DHT22;7099;53.922;10.728;2023-02-27T01:55:08;-2.10;66.60
14049;DHT22;7099;53.922;10.728;2023-02-27T01:59:17;-2.20;66.90
14049;DHT22;7099;53.922;10.728;2023-02-27T02:03:41;-2.20;67.00
14049;DHT22;7099;53.922;10.728;2023-02-27T02:07:52;-2.20;67.70
14049;DHT22;7099;53.922;10.728;2023-02-27T02:11:58;-2.20;66.90
14049;DHT22;7099;53.922;10.728;2023-02-27T02:30:24;-2.40;66.40
14049;DHT22;7099;53.922;10.728;2023-02-27T03:02:33;-2.60;66.30
14049;DHT22;7099;53.922;10.728;2023-02-27T03:06:47;-2.70;66.00
14049;DHT22;7099;53.922;10.728;2023-02-27T03:11:04;-2.70;66.20
14049;DHT22;7099;53.922;10.728;2023-02-27T03:15:17;-2.70;66.20
14049;DHT22;7099;53.922;10.728;2023-02-27T03:19:30;-2.70;66.20
14049;DHT22;7099;53.922;10.728;2023-02-27T03:23:43;-2.70;66.00
14049;DHT22;7099;53.922;10.728;2023-02-27T03:27:58;-2.80;65.90
14049;DHT22;7099;53.922;10.728;2023-02-27T03:32:22;-2.80;66.00
14049;DHT22;7099;53.922;10.728;2023-02-27T03:41:33;-2.90;66.40
14049;DHT22;7099;53.922;10.728;2023-02-27T03:45:54;-2.90;66.50
14049;DHT22;7099;53.922;10.728;2023-02-27T03:50:03;-2.90;66.40
14049;DHT22;7099;53.922;10.728;2023-02-27T03:54:19;-2.90;66.20
14049;DHT22;7099;53.922;10.728;2023-02-27T03:58:27;-3.00;66.00
14049;DHT22;7099;53.922;10.728;2023-02-27T04:02:34;-3.00;66.00
14049;DHT22;7099;53.922;10.728;2023-02-27T04:06:48;-3.10;66.60
14049;DHT22;7099;53.922;10.728;2023-02-27T04:11:53;-3.10;66.20
14049;DHT22;7099;53.922;10.728;2023-02-27T04:20:53;-3.10;66.70
14049;DHT22;7099;53.922;10.728;2023-02-27T04:25:22;-3.10;66.30
14049;DHT22;7099;53.922;10.728;2023-02-27T04:29:36;-3.10;66.30
14049;DHT22;7099;53.922;10.728;2023-02-27T04:34:09;-3.20;66.00
14049;DHT22;7099;53.922;10.728;2023-02-27T04:42:36;-3.20;66.20
14049;DHT22;7099;53.922;10.728;2023-02-27T04:46:45;-3.20;66.00
14049;DHT22;7099;53.922;10.728;2023-02-27T04:50:57;-3.30;66.00
14049;DHT22;7099;53.922;10.728;2023-02-27T04:55:06;-3.30;66.10
14049;DHT22;7099;53.922;10.728;2023-02-27T04:59:27;-3.30;66.20
14049;DHT22;7099;53.922;10.728;2023-02-27T05:03:39;-3.30;66.80
14049;DHT22;7099;53.922;10.728;2023-02-27T05:08:02;-3.30;66.90
14049;DHT22;7099;53.922;10.728;2023-02-27T05:12:43;-3.30;67.10
14049;DHT22;7099;53.922;10.728;2023-02-27T05:17:09;-3.30;66.90
14049;DHT22;7099;53.922;10.728;2023-02-27T05:21:23;-3.30;66.90
14049;DHT22;7099;53.922;10.728;2023-02-27T05:26:29;-3.30;67.10
14049;DHT22;7099;53.922;10.728;2023-02-27T05:30:42;-3.40;66.70
14049;DHT22;7099;53.922;10.728;2023-02-27T05:35:21;-3.40;66.50
14049;DHT22;7099;53.922;10.728;2023-02-27T05:39:35;-3.40;66.50
14049;DHT22;7099;53.922;10.728;2023-02-27T05:43:46;-3.50;66.50
14049;DHT22;7099;53.922;10.728;2023-02-27T05:47:59;-3.50;67.10
14049;DHT22;7099;53.922;10.728;2023-02-27T05:52:11;-3.50;67.80
14049;DHT22;7099;53.922;10.728;2023-02-27T05:56:21;-3.50;68.00
14049;DHT22;7099;53.922;10.728;2023-02-27T06:04:56;-3.40;69.00
14049;DHT22;7099;53.922;10.728;2023-02-27T06:09:02;-3.40;68.70
14049;DHT22;7099;53.922;10.728;2023-02-27T06:13:07;-3.40;68.40
14049;DHT22;7099;53.922;10.728;2023-02-27T06:17:13;-3.40;67.80
14049;DHT22;7099;53.922;10.728;2023-02-27T06:21:18;-3.40;67.40
14049;DHT22;7099;53.922;10.728;2023-02-27T06:25:24;-3.40;67.50
14049;DHT22;7099;53.922;10.728;2023-02-27T06:29:30;-3.40;67.50
14049;DHT22;7099;53.922;10.728;2023-02-27T06:33:36;-3.40;67.60
14049;DHT22;7099;53.922;10.728;2023-02-27T06:37:42;-3.40;69.60
14049;DHT22;7099;53.922;10.728;2023-02-27T06:41:47;-3.30;69.40
14049;DHT22;7099;53.922;10.728;2023-02-27T06:45:54;-3.30;68.90
14049;DHT22;7099;53.922;10.728;2023-02-27T06:50:00;-3.30;69.70
14049;DHT22;7099;53.922;10.728;2023-02-27T06:54:05;-3.20;69.80
14049;DHT22;7099;53.922;10.728;2023-02-27T06:58:12;-3.20;69.40
14049;DHT22;7099;53.922;10.728;2023-02-27T07:02:17;-3.20;69.60
14049;DHT22;7099;53.922;10.728;2023-02-27T07:06:23;-3.10;70.60
14049;DHT22;7099;53.922;10.728;2023-02-27T07:10:49;-3.00;70.90
14049;DHT22;7099;53.922;10.728;2023-02-27T07:14:54;-3.00;70.90
14049;DHT22;7099;53.922;10.728;2023-02-27T07:19:00;-2.80;71.50
14049;DHT22;7099;53.922;10.728;2023-02-27T07:23:05;-2.70;72.10
14049;DHT22;7099;53.922;10.728;2023-02-27T07:27:11;-2.60;72.90
14049;DHT22;7099;53.922;10.728;2023-02-27T07:31:16;-2.40;73.70
14049;DHT22;7099;53.922;10.728;2023-02-27T07:35:22;-2.20;73.70
14049;DHT22;7099;53.922;10.728;2023-02-27T07:39:27;-2.10;73.70
14049;DHT22;7099;53.922;10.728;2023-02-27T07:43:33;-1.90;74.00
14049;DHT22;7099;53.922;10.728;2023-02-27T07:47:39;-1.80;73.80
14049;DHT22;7099;53.922;10.728;2023-02-27T07:51:44;-1.60;74.10
14049;DHT22;7099;53.922;10.728;2023-02-27T07:55:50;-1.40;74.60
14049;DHT22;7099;53.922;10.728;2023-02-27T07:59:56;-1.20;74.80
14049;DHT22;7099;53.922;10.728;2023-02-27T08:04:02;-1.00;75.00
14049;DHT22;7099;53.922;10.728;2023-02-27T08:08:08;-0.80;75.10
14049;DHT22;7099;53.922;10.728;2023-02-27T08:12:14;-0.60;75.60
14049;DHT22;7099;53.922;10.728;2023-02-27T08:16:19;-0.30;75.70
14049;DHT22;7099;53.922;10.728;2023-02-27T08:20:25;-0.10;75.60
14049;DHT22;7099;53.922;10.728;2023-02-27T08:24:32;0.10;75.40
14049;DHT22;7099;53.922;10.728;2023-02-27T08:28:37;0.40;74.90
14049;DHT22;7099;53.922;10.728;2023-02-27T08:32:43;0.60;74.60
14049;DHT22;7099;53.922;10.728;2023-02-27T08:36:50;0.80;74.20
14049;DHT22;7099;53.922;10.728;2023-02-27T08:40:56;1.00;73.60
14049;DHT22;7099;53.922;10.728;2023-02-27T08:45:02;1.20;73.40
14049;DHT22;7099;53.922;10.728;2023-02-27T08:49:08;1.40;72.80
14049;DHT22;7099;53.922;10.728;2023-02-27T08:53:14;1.60;72.10
14049;DHT22;7099;53.922;10.728;2023-02-27T08:57:19;1.80;71.90
14049;DHT22;7099;53.922;10.728;2023-02-27T09:01:25;2.00;71.40
14049;DHT22;7099;53.922;10.728;2023-02-27T09:05:34;2.20;71.50
14049;DHT22;7099;53.922;10.728;2023-02-27T09:09:41;2.50;70.40
14049;DHT22;7099;53.922;10.728;2023-02-27T09:13:47;2.80;69.60
14049;DHT22;7099;53.922;10.728;2023-02-27T09:17:52;2.90;68.10
14049;DHT22;7099;53.922;10.728;2023-02-27T09:22:00;3.20;67.80
14049;DHT22;7099;53.922;10.728;2023-02-27T09:26:06;3.40;66.20
14049;DHT22;7099;53.922;10.728;2023-02-27T09:30:13;3.60;64.90
14049;DHT22;7099;53.922;10.728;2023-02-27T09:34:19;3.70;64.90
14049;DHT22;7099;53.922;10.728;2023-02-27T09:38:25;3.90;64.30
14049;DHT22;7099;53.922;10.728;2023-02-27T09:42:36;4.00;64.00
14049;DHT22;7099;53.922;10.728;2023-02-27T09:46:49;4.10;62.40
14049;DHT22;7099;53.922;10.728;2023-02-27T09:50:57;4.20;62.40
14049;DHT22;7099;53.922;10.728;2023-02-27T09:55:18;4.30;61.50
14049;DHT22;7099;53.922;10.728;2023-02-27T09:59:49;4.40;62.00
14049;DHT22;7099;53.922;10.728;2023-02-27T10:04:27;4.60;58.10
14049;DHT22;7099;53.922;10.728;2023-02-27T10:08:56;4.70;57.40
14049;DHT22;7099;53.922;10.728;2023-02-27T10:13:21;4.90;58.00
14049;DHT22;7099;53.922;10.728;2023-02-27T10:17:44;5.00;58.20
14049;DHT22;7099;53.922;10.728;2023-02-27T10:21:56;5.10;57.50
14049;DHT22;7099;53.922;10.728;2023-02-27T10:26:04;5.20;56.50
14049;DHT22;7099;53.922;10.728;2023-02-27T10:30:22;5.30;56.80
14049;DHT22;7099;53.922;10.728;2023-02-27T10:34:40;5.50;54.90
14049;DHT22;7099;53.922;10.728;2023-02-27T10:38:55;5.60;55.10
14049;DHT22;7099;53.922;10.728;2023-02-27T10:43:02;5.60;54.80
14049;DHT22;7099;53.922;10.728;2023-02-27T10:47:21;5.70;55.10
14049;DHT22;7099;53.922;10.728;2023-02-27T10:51:33;5.80;54.50
14049;DHT22;7099;53.922;10.728;2023-02-27T10:55:44;5.90;54.00
14049;DHT22;7099;53.922;10.728;2023-02-27T11:00:02;6.00;54.40
14049;DHT22;7099;53.922;10.728;2023-02-27T11:04:11;6.00;53.70
14049;DHT22;7099;53.922;10.728;2023-02-27T11:08:28;6.10;53.50
14049;DHT22;7099;53.922;10.728;2023-02-27T11:12:35;6.20;51.70
14049;DHT22;7099;53.922;10.728;2023-02-27T11:16:47;6.20;53.40
14049;DHT22;7099;53.922;10.728;2023-02-27T11:21:23;6.40;53.10
14049;DHT22;7099;53.922;10.728;2023-02-27T11:25:30;6.50;51.00
14049;DHT22;7099;53.922;10.728;2023-02-27T11:29:38;6.50;52.80
14049;DHT22;7099;53.922;10.728;2023-02-27T11:34:03;6.60;52.00
14049;DHT22;7099;53.922;10.728;2023-02-27T11:38:19;6.60;52.00
14049;DHT22;7099;53.922;10.728;2023-02-27T11:42:33;6.80;52.60
14049;DHT22;7099;53.922;10.728;2023-02-27T11:46:41;6.90;51.80
14049;DHT22;7099;53.922;10.728;2023-02-27T11:55:25;7.10;50.00
14049;DHT22;7099;53.922;10.728;2023-02-27T11:59:57;7.20;51.30
14049;DHT22;7099;53.922;10.728;2023-02-27T12:04:13;7.20;49.40
14049;DHT22;7099;53.922;10.728;2023-02-27T12:13:08;7.30;50.80
14049;DHT22;7099;53.922;10.728;2023-02-27T12:17:31;7.30;50.50
14049;DHT22;7099;53.922;10.728;2023-02-27T12:21:57;7.50;51.10
14049;DHT22;7099;53.922;10.728;2023-02-27T12:26:43;7.60;50.50
14049;DHT22;7099;53.922;10.728;2023-02-27T12:35:23;7.70;50.10
14049;DHT22;7099;53.922;10.728;2023-02-27T12:39:32;7.70;50.30
14049;DHT22;7099;53.922;10.728;2023-02-27T12:43:47;7.70;50.60
14049;DHT22;7099;53.922;10.728;2023-02-27T12:48:19;7.70;50.20
14049;DHT22;7099;53.922;10.728;2023-02-27T13:01:44;7.90;48.60
14049;DHT22;7099;53.922;10.728;2023-02-27T13:06:20;8.00;48.20
14049;DHT22;7099;53.922;10.728;2023-02-27T13:15:13;8.30;49.40
14049;DHT22;7099;53.922;10.728;2023-02-27T13:19:34;8.40;49.50
14049;DHT22;7099;53.922;10.728;2023-02-27T13:28:45;8.10;48.50
14049;DHT22;7099;53.922;10.728;2023-02-27T13:37:19;8.20;48.90
14049;DHT22;7099;53.922;10.728;2023-02-27T13:45:55;8.40;50.10
14049;DHT22;7099;53.922;10.728;2023-02-27T13:50:50;8.30;49.80
14049;DHT22;7099;53.922;10.728;2023-02-27T13:54:31;8.20;49.60
14049;DHT22;7099;53.922;10.728;2023-02-27T13:58:41;8.10;49.90
14049;DHT22;7099;53.922;10.728;2023-02-27T14:02:54;8.10;50.50
14049;DHT22;7099;53.922;10.728;2023-02-27T14:07:16;8.10;49.50
14049;DHT22;7099;53.922;10.728;2023-02-27T14:11:32;8.00;49.70
14049;DHT22;7099;53.922;10.728;2023-02-27T14:15:51;8.10;50.10
14049;DHT22;7099;53.922;10.728;2023-02-27T14:19:59;8.10;50.30
14049;DHT22;7099;53.922;10.728;2023-02-27T14:24:12;8.20;50.40
14049;DHT22;7099;53.922;10.728;2023-02-27T14:28:33;8.10;50.40
14049;DHT22;7099;53.922;10.728;2023-02-27T14:32:54;8.00;50.40
14049;DHT22;7099;53.922;10.728;2023-02-27T14:37:06;7.90;50.80
14049;DHT22;7099;53.922;10.728;2023-02-27T14:41:30;7.80;51.30
14049;DHT22;7099;53.922;10.728;2023-02-27T14:45:49;7.90;51.20
14049;DHT22;7099;53.922;10.728;2023-02-27T14:49:54;7.90;51.80
14049;DHT22;7099;53.922;10.728;2023-02-27T14:54:20;7.90;51.70
14049;DHT22;7099;53.922;10.728;2023-02-27T14:58:27;7.90;51.10
14049;DHT22;7099;53.922;10.728;2023-02-27T15:02:34;7.70;51.80
14049;DHT22;7099;53.922;10.728;2023-02-27T15:06:44;7.60;52.00
14049;DHT22;7099;53.922;10.728;2023-02-27T15:10:53;7.60;52.00
14049;DHT22;7099;53.922;10.728;2023-02-27T15:15:02;7.50;52.10
14049;DHT22;7099;53.922;10.728;2023-02-27T15:19:17;7.50;52.40
14049;DHT22;7099;53.922;10.728;2023-02-27T15:23:26;7.50;52.40
14049;DHT22;7099;53.922;10.728;2023-02-27T15:27:34;7.60;52.70
14049;DHT22;7099;53.922;10.728;2023-02-27T15:31:44;7.40;52.60
14049;DHT22;7099;53.922;10.728;2023-02-27T15:35:50;7.40;52.50
14049;DHT22;7099;53.922;10.728;2023-02-27T15:39:57;7.30;52.90
14049;DHT22;7099;53.922;10.728;2023-02-27T15:44:04;7.40;53.20
14049;DHT22;7099;53.922;10.728;2023-02-27T15:48:14;7.40;53.20
14049;DHT22;7099;53.922;10.728;2023-02-27T15:52:22;7.40;53.10
14049;DHT22;7099;53.922;10.728;2023-02-27T15:56:34;7.40;53.20
14049;DHT22;7099;53.922;10.728;2023-02-27T16:00:41;7.30;53.20
14049;DHT22;7099;53.922;10.728;2023-02-27T16:04:47;7.30;53.10
14049;DHT22;7099;53.922;10.728;2023-02-27T16:08:57;7.30;53.50
14049;DHT22;7099;53.922;10.728;2023-02-27T16:17:31;7.10;53.50
14049;DHT22;7099;53.922;10.728;2023-02-27T16:21:37;7.10;53.70
14049;DHT22;7099;53.922;10.728;2023-02-27T16:25:59;7.00;54.20
14049;DHT22;7099;53.922;10.728;2023-02-27T16:30:10;7.00;54.70
14049;DHT22;7099;53.922;10.728;2023-02-27T16:38:49;6.90;54.70
14049;DHT22;7099;53.922;10.728;2023-02-27T16:42:55;6.80;54.50
14049;DHT22;7099;53.922;10.728;2023-02-27T16:47:01;6.80;54.20
14049;DHT22;7099;53.922;10.728;2023-02-27T16:51:17;6.70;54.70
14049;DHT22;7099;53.922;10.728;2023-02-27T16:55:24;6.70;54.80
14049;DHT22;7099;53.922;10.728;2023-02-27T16:59:35;6.60;54.80
14049;DHT22;7099;53.922;10.728;2023-02-27T17:03:44;6.60;55.00
14049;DHT22;7099;53.922;10.728;2023-02-27T17:07:50;6.50;55.10
14049;DHT22;7099;53.922;10.728;2023-02-27T17:11:56;6.50;55.10
14049;DHT22;7099;53.922;10.728;2023-02-27T17:16:03;6.40;55.20
14049;DHT22;7099;53.922;10.728;2023-02-27T17:20:10;6.40;55.10
14049;DHT22;7099;53.922;10.728;2023-02-27T17:24:17;6.30;55.40
14049;DHT22;7099;53.922;10.728;2023-02-27T17:28:23;6.20;55.70
14049;DHT22;7099;53.922;10.728;2023-02-27T17:32:29;6.10;55.70
14049;DHT22;7099;53.922;10.728;2023-02-27T17:36:35;6.10;55.50
14049;DHT22;7099;53.922;10.728;2023-02-27T17:40:41;6.10;55.40
14049;DHT22;7099;53.922;10.728;2023-02-27T17:44:47;6.00;55.90
14049;DHT22;7099;53.922;10.728;2023-02-27T17:48:52;5.90;56.10
14049;DHT22;7099;53.922;10.728;2023-02-27T17:53:00;5.90;56.00
14049;DHT22;7099;53.922;10.728;2023-02-27T17:57:06;5.90;56.20
14049;DHT22;7099;53.922;10.728;2023-02-27T18:01:17;5.80;56.30
14049;DHT22;7099;53.922;10.728;2023-02-27T18:05:24;5.80;56.60
14049;DHT22;7099;53.922;10.728;2023-02-27T18:09:30;5.70;56.50
14049;DHT22;7099;53.922;10.728;2023-02-27T18:13:36;5.70;56.70
14049;DHT22;7099;53.922;10.728;2023-02-27T18:17:42;5.60;56.90
14049;DHT22;7099;53.922;10.728;2023-02-27T18:21:48;5.60;57.10
14049;DHT22;7099;53.922;10.728;2023-02-27T18:25:58;5.60;57.30
14049;DHT22;7099;53.922;10.728;2023-02-27T18:30:04;5.50;57.50
14049;DHT22;7099;53.922;10.728;2023-02-27T18:34:11;5.50;57.70
14049;DHT22;7099;53.922;10.728;2023-02-27T18:38:17;5.40;57.90
14049;DHT22;7099;53.922;10.728;2023-02-27T18:42:22;5.40;58.50
14049;DHT22;7099;53.922;10.728;2023-02-27T18:46:28;5.40;58.20
14049;DHT22;7099;53.922;10.728;2023-02-27T18:50:34;5.30;57.90
14049;DHT22;7099;53.922;10.728;2023-02-27T18:54:40;5.30;58.00
14049;DHT22;7099;53.922;10.728;2023-02-27T18:58:46;5.30;58.20
14049;DHT22;7099;53.922;10.728;2023-02-27T19:02:52;5.30;58.20
14049;DHT22;7099;53.922;10.728;2023-02-27T19:06:57;5.30;58.30
14049;DHT22;7099;53.922;10.728;2023-02-27T19:11:03;5.30;58.50
14049;DHT22;7099;53.922;10.728;2023-02-27T19:15:09;5.30;58.50
14049;DHT22;7099;53.922;10.728;2023-02-27T19:19:16;5.20;58.50
14049;DHT22;7099;53.922;10.728;2023-02-27T19:23:22;5.20;58.90
14049;DHT22;7099;53.922;10.728;2023-02-27T19:27:28;5.10;59.50
14049;DHT22;7099;53.922;10.728;2023-02-27T19:31:33;5.10;59.60
14049;DHT22;7099;53.922;10.728;2023-02-27T19:35:39;5.10;59.30
14049;DHT22;7099;53.922;10.728;2023-02-27T19:39:47;5.10;59.30
14049;DHT22;7099;53.922;10.728;2023-02-27T19:43:53;5.00;59.30
14049;DHT22;7099;53.922;10.728;2023-02-27T19:47:58;5.10;59.40
14049;DHT22;7099;53.922;10.728;2023-02-27T19:52:05;5.00;59.60
14049;DHT22;7099;53.922;10.728;2023-02-27T19:56:19;5.00;60.00
14049;DHT22;7099;53.922;10.728;2023-02-27T20:00:26;4.90;59.90
14049;DHT22;7099;53.922;10.728;2023-02-27T20:04:32;4.90;60.00
14049;DHT22;7099;53.922;10.728;2023-02-27T20:08:38;4.90;60.00
14049;DHT22;7099;53.922;10.728;2023-02-27T20:12:43;4.90;60.00
14049;DHT22;7099;53.922;10.728;2023-02-27T20:16:49;4.80;60.20
14049;DHT22;7099;53.922;10.728;2023-02-27T20:21:29;4.80;60.30
14049;DHT22;7099;53.922;10.728;2023-02-27T20:25:35;4.70;61.00
14049;DHT22;7099;53.922;10.728;2023-02-27T20:29:40;4.70;60.40
14049;DHT22;7099;53.922;10.728;2023-02-27T20:33:47;4.70;60.40
14049;DHT22;7099;53.922;10.728;2023-02-27T20:37:53;4.60;61.10
14049;DHT22;7099;53.922;10.728;2023-02-27T20:41:59;4.60;60.70
14049;DHT22;7099;53.922;10.728;2023-02-27T20:46:07;4.50;60.80
14049;DHT22;7099;53.922;10.728;2023-02-27T20:50:23;4.50;60.80
14049;DHT22;7099;53.922;10.728;2023-02-27T20:54:29;4.40;60.90
14049;DHT22;7099;53.922;10.728;2023-02-27T20:58:35;4.40;61.00
14049;DHT22;7099;53.922;10.728;2023-02-27T21:02:41;4.30;61.20
14049;DHT22;7099;53.922;10.728;2023-02-27T21:06:48;4.30;61.30
14049;DHT22;7099;53.922;10.728;2023-02-27T21:10:54;4.20;61.40
14049;DHT22;7099;53.922;10.728;2023-02-27T21:15:00;4.20;61.70
14049;DHT22;7099;53.922;10.728;2023-02-27T21:19:06;4.20;61.80
14049;DHT22;7099;53.922;10.728;2023-02-27T21:23:12;4.20;61.80
14049;DHT22;7099;53.922;10.728;2023-02-27T21:27:17;4.10;62.00
14049;DHT22;7099;53.922;10.728;2023-02-27T21:31:28;4.10;62.10
14049;DHT22;7099;53.922;10.728;2023-02-27T21:35:36;4.10;62.20
14049;DHT22;7099;53.922;10.728;2023-02-27T21:39:41;4.10;62.90
14049;DHT22;7099;53.922;10.728;2023-02-27T21:43:49;4.10;62.20
14049;DHT22;7099;53.922;10.728;2023-02-27T21:47:55;4.10;62.50
14049;DHT22;7099;53.922;10.728;2023-02-27T21:52:00;4.00;62.50
14049;DHT22;7099;53.922;10.728;2023-02-27T21:56:08;4.00;62.70
14049;DHT22;7099;53.922;10.728;2023-02-27T22:00:15;4.00;62.70
14049;DHT22;7099;53.922;10.728;2023-02-27T22:04:20;4.00;62.80
14049;DHT22;7099;53.922;10.728;2023-02-27T22:08:26;4.00;62.80
14049;DHT22;7099;53.922;10.728;2023-02-27T22:12:32;4.00;63.00
14049;DHT22;7099;53.922;10.728;2023-02-27T22:16:38;4.00;63.00
14049;DHT22;7099;53.922;10.728;2023-02-27T22:20:45;4.00;63.10
14049;DHT22;7099;53.922;10.728;2023-02-27T22:24:50;4.00;63.30
14049;DHT22;7099;53.922;10.728;2023-02-27T22:28:56;3.90;63.10
14049;DHT22;7099;53.922;10.728;2023-02-27T22:33:02;3.90;63.20
14049;DHT22;7099;53.922;10.728;2023-02-27T22:37:08;3.90;63.30
14049;DHT22;7099;53.922;10.728;2023-02-27T22:41:17;3.90;63.60
14049;DHT22;7099;53.922;10.728;2023-02-27T22:45:26;3.90;63.70
14049;DHT22;7099;53.922;10.728;2023-02-27T22:49:32;3.80;63.60
14049;DHT22;7099;53.922;10.728;2023-02-27T22:53:38;3.80;63.70
14049;DHT22;7099;53.922;10.728;2023-02-27T22:57:43;3.80;63.70
14049;DHT22;7099;53.922;10.728;2023-02-27T23:01:53;3.80;63.80
14049;DHT22;7099;53.922;10.728;2023-02-27T23:05:59;3.80;63.90
14049;DHT22;7099;53.922;10.728;2023-02-27T23:10:05;3.80;64.10
14049;DHT22;7099;53.922;10.728;2023-02-27T23:14:14;3.80;64.00
14049;DHT22;7099;53.922;10.728;2023-02-27T23:18:20;3.70;63.80
14049;DHT22;7099;53.922;10.728;2023-02-27T23:22:26;3.70;64.00
14049;DHT22;7099;53.922;10.728;2023-02-27T23:26:40;3.70;64.00
14049;DHT22;7099;53.922;10.728;2023-02-27T23:30:49;3.70;64.00
14049;DHT22;7099;53.922;10.728;2023-02-27T23:34:55;3.70;64.10
14049;DHT22;7099;53.922;10.728;2023-02-27T23:39:01;3.70;64.00
14049;DHT22;7099;53.922;10.728;2023-02-27T23:43:08;3.70;64.10
14049;DHT22;7099;53.922;10.728;2023-02-27T23:47:32;3.70;64.10
14049;DHT22;7099;53.922;10.728;2023-02-27T23:51:49;3.70;64.20
14049;DHT22;7099;53.922;10.728;2023-02-27T23:55:55;3.70;64.20
